createdAt,value
2019-04-27T00:01:48.683Z,98074.13
2019-04-27T00:04:40.042Z,98074.30
2019-04-27T00:07:24.965Z,98073.31
2019-04-27T00:10:03.666Z,98068.92
2019-04-27T00:12:34.694Z,98066.73
2019-04-27T00:15:08.106Z,98061.17
2019-04-27T00:17:48.697Z,98065.08
2019-04-27T00:20:33.979Z,98059.69
2019-04-27T00:23:06.621Z,98060.40
2019-04-27T00:25:43.701Z,98057.41
2019-04-27T00:28:14.686Z,98050.41
2019-04-27T00:30:45.875Z,98046.16
2019-04-27T00:33:16.855Z,98045.39
2019-04-27T00:35:55.681Z,98044.14
2019-04-27T00:38:37.660Z,98045.04
2019-04-27T00:41:10.526Z,98040.24
2019-04-27T00:43:42.734Z,98033.39
2019-04-27T00:46:14.254Z,98033.84
2019-04-27T00:48:45.448Z,98025.60
2019-04-27T00:51:15.531Z,98023.00
2019-04-27T00:53:46.792Z,98020.41
2019-04-27T00:56:19.483Z,98016.11
2019-04-27T00:58:54.952Z,98010.46
2019-04-27T01:01:30.526Z,98013.51
2019-04-27T01:04:06.407Z,98009.16
2019-04-27T01:06:37.460Z,98007.86
2019-04-27T01:09:10.753Z,98002.67
2019-04-27T01:11:43.448Z,98004.42
2019-04-27T01:14:14.572Z,98002.31
2019-04-27T01:16:45.692Z,98003.17
2019-04-27T01:19:18.954Z,98008.05
2019-04-27T01:21:49.763Z,98010.24
2019-04-27T01:24:20.904Z,98012.84
2019-04-27T01:26:53.444Z,98008.50
2019-04-27T01:29:39.268Z,98012.44
2019-04-27T01:32:12.043Z,98010.24
2019-04-27T01:34:42.154Z,98007.59
2019-04-27T01:37:13.304Z,98006.80
2019-04-27T01:39:44.352Z,98008.50
2019-04-27T01:42:15.691Z,98010.30
2019-04-27T01:44:46.631Z,98014.99
2019-04-27T01:47:18.724Z,98016.79
2019-04-27T01:49:49.857Z,98009.80
2019-04-27T01:52:20.945Z,98018.66
2019-04-27T01:54:51.913Z,98013.06
2019-04-27T01:57:23.239Z,98009.56
2019-04-27T01:59:54.213Z,98014.76
2019-04-27T02:02:42.207Z,98016.55
2019-04-27T02:05:14.901Z,98018.89
2019-04-27T02:07:49.078Z,98015.89
2019-04-27T02:10:20.331Z,98019.39
2019-04-27T02:12:50.485Z,98016.79
2019-04-27T02:15:21.615Z,98020.64
2019-04-27T02:17:52.631Z,98019.73
2019-04-27T02:20:23.937Z,98017.14
2019-04-27T02:22:54.929Z,98009.84
2019-04-27T02:25:26.107Z,98012.44
2019-04-27T02:27:59.287Z,98006.89
2019-04-27T02:30:41.107Z,98001.38
2019-04-27T02:33:25.802Z,98003.18
2019-04-27T02:35:56.983Z,98003.68
2019-04-27T02:38:30.299Z,98002.11
2019-04-27T02:41:01.940Z,97999.11
2019-04-27T02:43:39.723Z,97993.62
2019-04-27T02:46:10.211Z,97995.77
2019-04-27T02:48:55.593Z,97990.30
2019-04-27T02:51:14.961Z,98000.78
2019-04-27T02:53:50.803Z,98001.28
2019-04-27T02:56:20.963Z,98004.73
2019-04-27T02:58:52.774Z,98008.62
2019-04-27T03:01:25.733Z,98002.98
2019-04-27T03:04:00.027Z,98001.23
2019-04-27T03:06:30.381Z,98001.02
2019-04-27T03:09:01.714Z,97996.41
2019-04-27T03:11:32.793Z,97996.59
2019-04-27T03:14:34.822Z,98007.93
2019-04-27T03:17:09.930Z,98004.97
2019-04-27T03:19:42.987Z,98004.03
2019-04-27T03:22:19.462Z,98003.08
2019-04-27T03:24:59.996Z,97998.69
2019-04-27T03:27:33.145Z,97998.91
2019-04-27T03:30:05.734Z,97993.17
2019-04-27T03:32:36.779Z,97984.53
2019-04-27T03:35:12.341Z,97986.23
2019-04-27T03:37:40.994Z,97981.86
2019-04-27T03:40:11.484Z,97982.25
2019-04-27T03:42:44.691Z,97982.38
2019-04-27T03:45:15.822Z,97979.94
2019-04-27T03:47:47.042Z,97977.98
2019-04-27T03:50:20.484Z,97977.26
2019-04-27T03:53:10.370Z,97985.95
2019-04-27T03:55:42.944Z,97984.69
2019-04-27T03:58:30.977Z,97979.15
2019-04-27T04:01:02.099Z,97981.34
2019-04-27T04:03:33.311Z,97981.06
2019-04-27T04:06:04.431Z,97981.34
2019-04-27T04:08:35.601Z,97980.05
2019-04-27T04:11:11.327Z,97980.40
2019-04-27T04:13:53.282Z,97984.30
2019-04-27T04:16:25.894Z,97983.48
2019-04-27T04:19:00.881Z,97986.94
2019-04-27T04:21:31.529Z,97982.55
2019-04-27T04:24:02.730Z,97976.86
2019-04-27T04:26:33.697Z,97983.27
2019-04-27T04:29:04.067Z,97990.96
2019-04-27T04:31:35.130Z,97993.45
2019-04-27T04:34:06.098Z,97996.41
2019-04-27T04:36:39.423Z,97996.41
2019-04-27T04:39:12.304Z,98004.10
2019-04-27T04:41:44.547Z,98007.91
2019-04-27T04:44:30.255Z,98009.08
2019-04-27T04:47:20.209Z,98013.82
2019-04-27T04:50:07.003Z,98010.05
2019-04-27T04:52:25.158Z,98005.92
2019-04-27T04:54:56.739Z,98007.48
2019-04-27T04:57:29.926Z,98004.30
2019-04-27T05:00:00.651Z,98004.25
2019-04-27T05:02:31.700Z,98007.64
2019-04-27T05:05:05.830Z,98008.81
2019-04-27T05:07:38.609Z,98015.21
2019-04-27T05:10:10.033Z,98013.36
2019-04-27T05:12:40.189Z,98012.46
2019-04-27T05:15:11.508Z,98016.67
2019-04-27T05:17:42.435Z,98015.72
2019-04-27T05:20:31.993Z,98015.67
2019-04-27T05:23:02.875Z,98020.34
2019-04-27T05:25:34.133Z,98027.37
2019-04-27T05:28:04.989Z,98021.03
2019-04-27T05:30:36.337Z,98026.58
2019-04-27T05:33:08.974Z,98031.20
2019-04-27T05:35:41.125Z,98023.80
2019-04-27T05:38:13.572Z,98026.39
2019-04-27T05:40:58.809Z,98022.20
2019-04-27T05:43:33.276Z,98023.58
2019-04-27T05:46:36.636Z,98024.30
2019-04-27T05:49:09.656Z,98024.14
2019-04-27T05:51:42.065Z,98022.02
2019-04-27T05:54:13.058Z,98023.51
2019-04-27T05:56:44.267Z,98022.97
2019-04-27T05:59:15.271Z,98025.52
2019-04-27T06:01:45.466Z,98023.97
2019-04-27T06:04:16.763Z,98019.12
2019-04-27T06:06:49.704Z,98019.63
2019-04-27T06:09:20.559Z,98025.45
2019-04-27T06:11:51.635Z,98020.86
2019-04-27T06:14:22.713Z,98022.70
2019-04-27T06:16:53.673Z,98024.41
2019-04-27T06:19:24.872Z,98027.66
2019-04-27T06:21:55.786Z,98019.29
2019-04-27T06:24:27.015Z,98022.03
2019-04-27T06:26:59.670Z,98014.38
2019-04-27T06:29:30.902Z,98028.09
2019-04-27T06:32:01.956Z,98023.48
2019-04-27T06:34:33.231Z,98022.94
2019-04-27T06:37:04.285Z,98020.91
2019-04-27T06:39:34.432Z,98028.84
2019-04-27T06:42:16.067Z,98019.20
2019-04-27T06:44:39.495Z,98024.80
2019-04-27T06:47:10.706Z,98020.59
2019-04-27T06:49:41.719Z,98023.05
2019-04-27T06:52:12.840Z,98027.55
2019-04-27T06:54:43.806Z,98029.19
2019-04-27T06:57:14.976Z,98022.20
2019-04-27T06:59:45.903Z,98022.53
2019-04-27T07:02:18.914Z,98031.72
2019-04-27T07:04:49.712Z,98033.93
2019-04-27T07:07:20.851Z,98028.92
2019-04-27T07:09:51.781Z,98029.52
2019-04-27T07:12:21.875Z,98037.38
2019-04-27T07:14:55.171Z,98033.66
2019-04-27T07:17:25.789Z,98034.03
2019-04-27T07:19:56.937Z,98032.84
2019-04-27T07:22:29.701Z,98034.27
2019-04-27T07:25:01.036Z,98027.47
2019-04-27T07:27:32.073Z,98025.88
2019-04-27T07:30:04.377Z,98030.20
2019-04-27T07:32:39.088Z,98025.70
2019-04-27T07:35:10.583Z,98023.78
2019-04-27T07:37:41.489Z,98020.09
2019-04-27T07:40:12.999Z,98016.62
2019-04-27T07:42:45.984Z,98012.24
2019-04-27T07:45:30.055Z,98017.73
2019-04-27T07:48:01.264Z,98006.09
2019-04-27T07:50:31.388Z,98012.09
2019-04-27T07:53:02.629Z,98003.77
2019-04-27T07:55:33.547Z,98009.55
2019-04-27T07:58:05.292Z,98013.41
2019-04-27T08:00:36.397Z,98001.64
2019-04-27T08:03:07.491Z,98003.92
2019-04-27T08:05:39.163Z,98002.73
2019-04-27T08:08:10.877Z,98008.73
2019-04-27T08:10:41.841Z,98010.11
2019-04-27T08:13:12.916Z,97995.35
2019-04-27T08:15:43.893Z,97986.19
2019-04-27T08:18:14.959Z,97987.23
2019-04-27T08:20:46.005Z,97989.70
2019-04-27T08:23:16.053Z,97989.99
2019-04-27T08:25:48.850Z,97982.56
2019-04-27T08:28:30.736Z,97988.66
2019-04-27T08:31:15.572Z,97980.43
2019-04-27T08:33:46.482Z,97975.13
2019-04-27T08:36:18.995Z,97968.58
2019-04-27T08:38:50.080Z,97971.49
2019-04-27T08:41:21.355Z,97962.92
2019-04-27T08:43:52.328Z,97960.38
2019-04-27T08:46:23.538Z,97960.28
2019-04-27T08:48:54.617Z,97960.99
2019-04-27T08:51:25.789Z,97959.23
2019-04-27T08:53:56.785Z,97960.27
2019-04-27T08:56:27.967Z,97965.10
2019-04-27T08:58:59.475Z,97959.00
2019-04-27T09:01:29.985Z,97952.52
2019-04-27T09:04:01.142Z,97948.93
2019-04-27T09:06:33.247Z,97940.58
2019-04-27T09:09:09.466Z,97941.02
2019-04-27T09:11:51.526Z,97945.95
2019-04-27T09:14:24.190Z,97937.73
2019-04-27T09:17:00.048Z,97939.00
2019-04-27T09:19:39.241Z,97930.64
2019-04-27T09:22:15.827Z,97928.92
2019-04-27T09:24:43.151Z,97922.40
2019-04-27T09:27:17.109Z,97911.50
2019-04-27T09:29:47.181Z,97910.52
2019-04-27T09:32:19.128Z,97909.70
2019-04-27T09:34:50.422Z,97907.40
2019-04-27T09:37:21.466Z,97908.70
2019-04-27T09:39:52.722Z,97897.94
2019-04-27T09:42:23.704Z,97889.87
2019-04-27T09:44:55.747Z,97890.70
2019-04-27T09:47:26.883Z,97892.27
2019-04-27T09:49:57.948Z,97888.46
2019-04-27T09:52:29.402Z,97885.30
2019-04-27T09:55:00.424Z,97876.72
2019-04-27T09:57:31.528Z,97879.79
2019-04-27T10:00:02.612Z,97872.79
2019-04-27T10:02:36.662Z,97858.98
2019-04-27T10:05:08.152Z,97863.67
2019-04-27T10:07:39.320Z,97863.84
2019-04-27T10:10:10.662Z,97856.89
2019-04-27T10:12:41.860Z,97856.64
2019-04-27T10:15:12.903Z,97852.39
2019-04-27T10:17:45.964Z,97846.22
2019-04-27T10:20:17.276Z,97850.98
2019-04-27T10:22:48.217Z,97845.81
2019-04-27T10:25:23.748Z,97854.05
2019-04-27T10:27:56.406Z,97842.55
2019-04-27T10:30:28.679Z,97839.88
2019-04-27T10:32:59.662Z,97845.34
2019-04-27T10:35:30.844Z,97851.66
2019-04-27T10:38:01.844Z,97845.97
2019-04-27T10:40:32.986Z,97853.92
2019-04-27T10:43:04.066Z,97865.20
2019-04-27T10:45:37.892Z,97869.56
2019-04-27T10:48:09.244Z,97877.05
2019-04-27T10:50:40.408Z,97898.55
2019-04-27T10:53:11.377Z,97875.95
2019-04-27T10:55:41.546Z,97888.25
2019-04-27T10:58:12.936Z,97880.88
2019-04-27T11:00:46.000Z,97879.67
2019-04-27T11:03:18.858Z,97872.64
2019-04-27T11:05:54.052Z,97869.77
2019-04-27T11:08:25.165Z,97864.43
2019-04-27T11:10:56.464Z,97862.42
2019-04-27T11:13:27.783Z,97854.06
2019-04-27T11:15:59.130Z,97849.66
2019-04-27T11:18:30.380Z,97842.80
2019-04-27T11:21:01.260Z,97841.47
2019-04-27T11:23:32.567Z,97833.05
2019-04-27T11:26:03.604Z,97829.45
2019-04-27T11:28:35.945Z,97821.77
2019-04-27T11:31:07.971Z,97818.89
2019-04-27T11:33:37.992Z,97814.30
2019-04-27T11:36:10.885Z,97810.97
2019-04-27T11:38:41.992Z,97815.30
2019-04-27T11:41:13.147Z,97805.48
2019-04-27T11:43:44.217Z,97809.34
2019-04-27T11:46:16.392Z,97801.13
2019-04-27T11:48:47.695Z,97798.36
2019-04-27T11:51:18.736Z,97806.46
2019-04-27T11:53:49.910Z,97804.47
2019-04-27T11:56:21.240Z,97807.59
2019-04-27T11:58:52.130Z,97809.59
2019-04-27T12:01:23.463Z,97838.29
2019-04-27T12:03:55.618Z,97818.50
2019-04-27T12:06:25.983Z,97813.27
2019-04-27T12:08:57.229Z,97813.21
2019-04-27T12:11:28.149Z,97802.70
2019-04-27T12:13:59.362Z,97800.63
2019-04-27T12:16:30.413Z,97795.11
2019-04-27T12:19:01.695Z,97782.22
2019-04-27T12:21:32.663Z,97775.41
2019-04-27T12:24:04.147Z,97771.05
2019-04-27T12:26:36.775Z,97760.61
2019-04-27T12:29:09.643Z,97756.42
2019-04-27T12:31:44.865Z,97757.41
2019-04-27T12:34:16.290Z,97748.55
2019-04-27T12:36:49.348Z,97752.37
2019-04-27T12:39:21.834Z,97757.38
2019-04-27T12:41:52.974Z,97767.05
2019-04-27T12:44:23.074Z,97783.44
2019-04-27T12:46:57.484Z,97771.95
2019-04-27T12:49:27.007Z,97774.38
2019-04-27T12:51:59.809Z,97799.88
2019-04-27T12:54:46.389Z,97777.68
2019-04-27T12:57:28.273Z,97784.86
2019-04-27T13:00:00.821Z,97784.44
2019-04-27T13:02:33.561Z,97770.36
2019-04-27T13:05:06.913Z,97780.04
2019-04-27T13:07:38.126Z,97772.30
2019-04-27T13:10:09.224Z,97775.14
2019-04-27T13:12:40.490Z,97768.00
2019-04-27T13:15:12.118Z,97757.96
2019-04-27T13:17:43.257Z,97775.06
2019-04-27T13:20:35.892Z,97768.27
2019-04-27T13:23:07.427Z,97772.73
2019-04-27T13:25:38.619Z,97777.52
2019-04-27T13:28:08.650Z,97775.67
2019-04-27T13:30:39.884Z,97786.23
2019-04-27T13:33:10.871Z,97779.86
2019-04-27T13:35:42.553Z,97772.19
2019-04-27T13:38:13.731Z,97778.94
2019-04-27T13:40:46.569Z,97795.84
2019-04-27T13:43:19.167Z,97779.58
2019-04-27T13:45:58.208Z,97775.25
2019-04-27T13:48:33.713Z,97769.66
2019-04-27T13:51:06.986Z,97787.91
2019-04-27T13:53:38.218Z,97783.69
2019-04-27T13:56:15.034Z,97781.08
2019-04-27T13:58:46.146Z,97765.36
2019-04-27T14:01:17.524Z,97767.61
2019-04-27T14:03:48.715Z,97781.61
2019-04-27T14:06:18.776Z,97766.68
2019-04-27T14:08:50.297Z,97774.38
2019-04-27T14:11:21.194Z,97778.47
2019-04-27T14:13:52.442Z,97775.59
2019-04-27T14:16:23.546Z,97777.91
2019-04-27T14:18:54.978Z,97782.21
2019-04-27T14:21:26.021Z,97773.02
2019-04-27T14:23:58.597Z,97772.42
2019-04-27T14:26:29.828Z,97774.47
2019-04-27T14:29:00.924Z,97776.94
2019-04-27T14:31:31.962Z,97779.89
2019-04-27T14:34:03.128Z,97781.59
2019-04-27T14:36:34.252Z,97773.22
2019-04-27T14:39:09.179Z,97768.77
2019-04-27T14:41:40.630Z,97769.83
2019-04-27T14:44:10.850Z,97768.93
2019-04-27T14:46:42.038Z,97767.61
2019-04-27T14:49:13.083Z,97760.52
2019-04-27T14:51:44.230Z,97764.41
2019-04-27T14:54:15.372Z,97758.06
2019-04-27T14:56:46.533Z,97753.91
2019-04-27T14:59:18.789Z,97755.30
2019-04-27T15:01:50.141Z,97756.36
2019-04-27T15:04:21.189Z,97751.23
2019-04-27T15:06:52.295Z,97755.68
2019-04-27T15:09:24.017Z,97751.39
2019-04-27T15:11:56.537Z,97741.45
2019-04-27T15:14:27.534Z,97745.56
2019-04-27T15:16:59.272Z,97745.26
2019-04-27T15:19:32.190Z,97743.77
2019-04-27T15:22:03.262Z,97741.83
2019-04-27T15:24:34.455Z,97747.09
2019-04-27T15:27:06.166Z,97746.92
2019-04-27T15:29:37.539Z,97746.47
2019-04-27T15:32:12.346Z,97752.36
2019-04-27T15:34:44.723Z,97748.44
2019-04-27T15:37:22.748Z,97751.95
2019-04-27T15:40:12.794Z,97749.14
2019-04-27T15:42:54.703Z,97739.80
2019-04-27T15:45:26.020Z,97739.23
2019-04-27T15:47:58.416Z,97737.20
2019-04-27T15:50:32.193Z,97738.20
2019-04-27T15:53:06.954Z,97726.62
2019-04-27T15:55:39.573Z,97722.27
2019-04-27T15:58:13.741Z,97721.45
2019-04-27T16:00:49.630Z,97714.29
2019-04-27T16:03:22.832Z,97702.31
2019-04-27T16:05:50.738Z,97698.36
2019-04-27T16:08:22.193Z,97692.50
2019-04-27T16:10:53.155Z,97686.91
2019-04-27T16:13:26.432Z,97693.47
2019-04-27T16:15:58.393Z,97690.13
2019-04-27T16:18:32.591Z,97690.20
2019-04-27T16:21:02.841Z,97689.25
2019-04-27T16:23:40.060Z,97698.41
2019-04-27T16:26:11.210Z,97694.69
2019-04-27T16:28:43.069Z,97694.05
2019-04-27T16:31:13.873Z,97692.27
2019-04-27T16:33:45.219Z,97686.70
2019-04-27T16:36:16.303Z,97688.88
2019-04-27T16:39:08.167Z,97690.39
2019-04-27T16:41:37.384Z,97691.64
2019-04-27T16:44:10.743Z,97688.00
2019-04-27T16:46:43.048Z,97703.16
2019-04-27T16:49:15.031Z,97720.62
2019-04-27T16:51:46.427Z,97779.95
2019-04-27T16:54:21.029Z,97818.00
2019-04-27T16:56:58.129Z,97818.80
2019-04-27T16:59:42.331Z,97809.80
2019-04-27T17:01:56.061Z,97817.08
2019-04-27T17:04:27.111Z,97832.03
2019-04-27T17:06:59.085Z,97835.11
2019-04-27T17:09:30.211Z,97838.45
2019-04-27T17:12:01.520Z,97871.63
2019-04-27T17:14:49.580Z,97875.64
2019-04-27T17:17:35.197Z,97909.16
2019-04-27T17:20:08.438Z,97906.73
2019-04-27T17:22:39.283Z,97919.77
2019-04-27T17:25:10.942Z,97922.69
2019-04-27T17:27:48.250Z,97924.14
2019-04-27T17:30:19.965Z,97925.28
2019-04-27T17:32:53.243Z,97908.64
2019-04-27T17:35:24.389Z,97902.20
2019-04-27T17:37:55.795Z,97913.86
2019-04-27T17:40:29.963Z,97919.08
2019-04-27T17:43:06.404Z,97931.99
2019-04-27T17:45:36.336Z,97949.81
2019-04-27T17:48:10.881Z,97953.70
2019-04-27T17:50:43.064Z,97952.92
2019-04-27T17:53:14.207Z,97959.52
2019-04-27T17:55:45.436Z,97956.03
2019-04-27T17:58:18.076Z,97951.59
2019-04-27T18:00:49.399Z,97946.27
2019-04-27T18:03:21.180Z,97941.17
2019-04-27T18:05:52.061Z,97934.30
2019-04-27T18:08:25.223Z,97917.42
2019-04-27T18:11:00.538Z,97903.95
2019-04-27T18:13:29.247Z,97899.30
2019-04-27T18:16:00.401Z,97907.32
2019-04-27T18:18:33.344Z,97913.25
2019-04-27T18:21:04.902Z,97926.35
2019-04-27T18:23:37.674Z,97924.84
2019-04-27T18:26:17.491Z,97941.39
2019-04-27T18:28:53.886Z,97958.18
2019-04-27T18:31:24.016Z,97954.44
2019-04-27T18:33:55.288Z,97965.65
2019-04-27T18:36:26.423Z,97977.82
2019-04-27T18:38:58.727Z,97975.89
2019-04-27T18:41:29.872Z,97971.75
2019-04-27T18:44:00.522Z,97975.27
2019-04-27T18:46:31.934Z,97965.42
2019-04-27T18:49:04.681Z,97974.59
2019-04-27T18:51:40.765Z,97975.00
2019-04-27T18:54:11.741Z,97987.50
2019-04-27T18:56:42.965Z,97999.41
2019-04-27T18:59:14.003Z,98006.33
2019-04-27T19:01:45.308Z,98000.30
2019-04-27T19:04:16.243Z,98002.48
2019-04-27T19:06:47.606Z,98006.50
2019-04-27T19:09:19.177Z,98010.08
2019-04-27T19:11:56.275Z,98015.80
2019-04-27T19:14:22.996Z,98012.50
2019-04-27T19:16:54.659Z,98002.70
2019-04-27T19:19:25.760Z,98000.14
2019-04-27T19:21:55.867Z,97994.66
2019-04-27T19:24:28.132Z,97991.22
2019-04-27T19:27:00.976Z,97997.76
2019-04-27T19:29:34.048Z,97993.88
2019-04-27T19:32:05.525Z,97999.50
2019-04-27T19:34:38.751Z,98001.09
2019-04-27T19:37:09.589Z,98004.19
2019-04-27T19:39:40.901Z,98005.69
2019-04-27T19:42:11.891Z,98020.80
2019-04-27T19:44:42.996Z,98036.41
2019-04-27T19:47:13.995Z,98033.01
2019-04-27T19:49:45.364Z,98034.58
2019-04-27T19:52:18.318Z,98031.08
2019-04-27T19:54:49.438Z,98032.98
2019-04-27T19:57:31.817Z,98026.70
2019-04-27T19:59:55.039Z,98035.82
2019-04-27T20:02:26.476Z,98043.70
2019-04-27T20:05:01.785Z,98044.59
2019-04-27T20:07:33.041Z,98043.55
2019-04-27T20:10:08.645Z,98052.63
2019-04-27T20:12:41.116Z,98042.89
2019-04-27T20:15:12.452Z,98040.02
2019-04-27T20:17:43.616Z,98038.53
2019-04-27T20:20:14.643Z,98037.24
2019-04-27T20:22:45.850Z,98035.45
2019-04-27T20:25:16.847Z,98040.11
2019-04-27T20:27:49.432Z,98035.80
2019-04-27T20:30:21.132Z,98039.95
2019-04-27T20:32:51.284Z,98038.59
2019-04-27T20:35:22.372Z,98036.95
2019-04-27T20:37:53.239Z,98046.11
2019-04-27T20:40:24.388Z,98045.78
2019-04-27T20:42:55.287Z,98049.98
2019-04-27T20:45:26.621Z,98052.95
2019-04-27T20:47:57.685Z,98055.47
2019-04-27T20:50:28.859Z,98049.22
2019-04-27T20:53:01.529Z,98052.63
2019-04-27T20:55:32.653Z,98056.91
2019-04-27T20:58:03.835Z,98066.50
2019-04-27T21:00:35.283Z,98069.73
2019-04-27T21:03:11.899Z,98073.14
2019-04-27T21:05:47.377Z,98081.79
2019-04-27T21:08:20.880Z,98090.00
2019-04-27T21:10:51.520Z,98088.20
2019-04-27T21:13:22.965Z,98091.98
2019-04-27T21:15:53.947Z,98100.08
2019-04-27T21:18:25.200Z,98103.32
2019-04-27T21:20:56.251Z,98104.55
2019-04-27T21:23:27.399Z,98110.45
2019-04-27T21:25:58.343Z,98128.81
2019-04-27T21:28:29.663Z,98126.45
2019-04-27T21:31:00.661Z,98131.56
2019-04-27T21:33:31.899Z,98134.53
2019-04-27T21:36:02.844Z,98129.73
2019-04-27T21:38:33.889Z,98125.77
2019-04-27T21:41:05.049Z,98121.78
2019-04-27T21:43:35.094Z,98122.30
2019-04-27T21:46:06.577Z,98117.63
2019-04-27T21:48:37.522Z,98118.52
2019-04-27T21:51:08.798Z,98116.03
2019-04-27T21:53:51.221Z,98124.31
2019-04-27T21:56:22.967Z,98116.17
2019-04-27T21:58:53.852Z,98117.56
2019-04-27T22:01:27.023Z,98112.14
2019-04-27T22:03:58.120Z,98110.58
2019-04-27T22:06:29.258Z,98121.48
2019-04-27T22:09:01.285Z,98120.38
2019-04-27T22:11:32.849Z,98127.90
2019-04-27T22:14:05.966Z,98135.79
2019-04-27T22:16:36.637Z,98126.89
2019-04-27T22:19:08.247Z,98121.05
2019-04-27T22:21:38.412Z,98126.82
2019-04-27T22:24:11.255Z,98130.06
2019-04-27T22:26:42.255Z,98132.51
2019-04-27T22:29:13.416Z,98148.25
2019-04-27T22:31:44.426Z,98151.28
2019-04-27T22:34:15.470Z,98153.86
2019-04-27T22:36:46.466Z,98156.30
2019-04-27T22:39:22.134Z,98171.56
2019-04-27T22:41:54.808Z,98179.56
2019-04-27T22:44:31.719Z,98180.30
2019-04-27T22:47:02.860Z,98187.49
2019-04-27T22:49:34.288Z,98185.26
2019-04-27T22:52:05.282Z,98178.64
2019-04-27T22:54:36.614Z,98177.78
2019-04-27T22:57:09.163Z,98179.55
2019-04-27T22:59:52.660Z,98185.52
2019-04-27T23:02:31.924Z,98182.81
2019-04-27T23:05:02.845Z,98182.93
2019-04-27T23:07:33.995Z,98183.41
2019-04-27T23:10:07.030Z,98185.52
2019-04-27T23:12:38.384Z,98181.22
2019-04-27T23:15:11.022Z,98192.73
2019-04-27T23:17:57.807Z,98193.96
2019-04-27T23:20:28.906Z,98202.13
2019-04-27T23:23:01.277Z,98198.76
2019-04-27T23:25:32.732Z,98191.47
2019-04-27T23:28:03.874Z,98191.44
2019-04-27T23:30:36.531Z,98193.17
2019-04-27T23:33:07.844Z,98197.40
2019-04-27T23:35:38.784Z,98200.78
2019-04-27T23:38:17.250Z,98196.84
2019-04-27T23:40:42.571Z,98203.19
2019-04-27T23:43:12.722Z,98203.59
2019-04-27T23:45:43.930Z,98194.45
2019-04-27T23:48:14.877Z,98204.80
2019-04-27T23:50:47.585Z,98197.89
2019-04-27T23:53:21.869Z,98198.27
2019-04-27T23:55:53.182Z,98196.92
2019-04-27T23:58:24.143Z,98188.18
